createdAt,value
2017-05-30T00:00:44.669Z,19.72
2017-05-30T00:03:13.736Z,23.10
2017-05-30T00:05:42.797Z,23.94
2017-05-30T00:08:11.879Z,25.90
2017-05-30T00:10:40.931Z,24.92
2017-05-30T00:13:09.987Z,25.86
2017-05-30T00:15:39.054Z,25.04
2017-05-30T00:18:08.252Z,26.94
2017-05-30T00:20:37.321Z,26.14
2017-05-30T00:23:06.409Z,25.96
2017-05-30T00:25:35.475Z,28.92
2017-05-30T00:28:04.571Z,28.86
2017-05-30T00:30:33.627Z,25.60
2017-05-30T00:33:02.689Z,27.34
2017-05-30T00:35:31.762Z,29.28
2017-05-30T00:38:00.877Z,32.74
2017-05-30T00:40:29.946Z,31.42
2017-05-30T00:42:59.001Z,36.56
2017-05-30T00:45:28.085Z,36.56
2017-05-30T00:47:57.158Z,37.10
2017-05-30T00:50:26.229Z,41.60
2017-05-30T00:52:55.306Z,38.60
2017-05-30T00:55:24.371Z,43.46
2017-05-30T00:57:53.423Z,43.24
2017-05-30T01:00:23.220Z,35.30
2017-05-30T01:02:52.271Z,33.46
2017-05-30T01:05:21.333Z,31.70
2017-05-30T01:07:50.417Z,34.38
2017-05-30T01:10:19.469Z,37.66
2017-05-30T01:12:48.544Z,43.16
2017-05-30T01:15:17.653Z,40.00
2017-05-30T01:17:46.735Z,42.74
2017-05-30T01:20:15.801Z,41.00
2017-05-30T01:22:45.204Z,40.62
2017-05-30T01:25:14.315Z,41.38
2017-05-30T01:27:43.397Z,48.46
2017-05-30T01:30:12.527Z,50.44
2017-05-30T01:32:41.606Z,49.62
2017-05-30T01:35:11.122Z,47.22
2017-05-30T01:37:40.225Z,47.48
2017-05-30T01:40:09.300Z,51.80
2017-05-30T01:42:38.380Z,49.80
2017-05-30T01:45:07.468Z,48.34
2017-05-30T01:47:36.535Z,49.14
2017-05-30T01:50:05.681Z,51.76
2017-05-30T01:52:34.756Z,53.26
2017-05-30T01:55:03.838Z,54.14
2017-05-30T01:57:32.905Z,48.60
2017-05-30T02:00:01.950Z,51.56
2017-05-30T02:02:31.020Z,55.74
2017-05-30T02:05:00.071Z,55.38
2017-05-30T02:07:29.146Z,56.92
2017-05-30T02:09:58.334Z,52.26
2017-05-30T02:12:27.396Z,53.72
2017-05-30T02:14:56.909Z,52.06
2017-05-30T02:17:25.977Z,53.76
2017-05-30T02:19:55.052Z,48.76
2017-05-30T02:22:24.310Z,49.84
2017-05-30T02:24:53.369Z,48.02
2017-05-30T02:27:22.452Z,46.56
2017-05-30T02:29:51.682Z,46.88
2017-05-30T02:32:20.759Z,47.84
2017-05-30T02:34:49.889Z,46.22
2017-05-30T02:37:18.946Z,44.34
2017-05-30T02:39:48.067Z,42.18
2017-05-30T02:42:17.156Z,43.98
2017-05-30T02:44:46.227Z,43.90
2017-05-30T02:47:15.311Z,44.76
2017-05-30T02:49:44.393Z,42.38
2017-05-30T02:52:13.446Z,42.16
2017-05-30T02:54:42.501Z,44.38
2017-05-30T02:57:11.607Z,45.66
2017-05-30T02:59:40.672Z,46.92
2017-05-30T03:02:09.776Z,44.68
2017-05-30T03:04:38.850Z,45.16
2017-05-30T03:07:08.289Z,44.42
2017-05-30T03:09:37.368Z,48.94
2017-05-30T03:12:06.475Z,44.32
2017-05-30T03:14:35.546Z,46.16
2017-05-30T03:17:04.608Z,44.60
2017-05-30T03:19:33.659Z,45.74
2017-05-30T03:22:02.772Z,47.48
2017-05-30T03:24:31.836Z,48.78
2017-05-30T03:27:00.916Z,46.70
2017-05-30T03:29:29.993Z,46.56
2017-05-30T03:31:59.048Z,48.40
2017-05-30T03:34:28.152Z,47.98
2017-05-30T03:36:57.216Z,43.38
2017-05-30T03:39:26.274Z,46.94
2017-05-30T03:41:55.340Z,46.32
2017-05-30T03:44:24.679Z,49.22
2017-05-30T03:46:53.736Z,45.12
2017-05-30T03:49:22.810Z,46.82
2017-05-30T03:51:51.899Z,45.96
2017-05-30T03:54:20.949Z,48.06
2017-05-30T03:56:50.498Z,48.86
2017-05-30T03:59:19.565Z,49.00
2017-05-30T04:01:48.618Z,46.78
2017-05-30T04:04:17.685Z,50.74
2017-05-30T04:06:47.036Z,48.56
2017-05-30T04:09:16.292Z,45.10
2017-05-30T04:11:45.359Z,46.12
2017-05-30T04:14:14.734Z,47.62
2017-05-30T04:16:43.820Z,48.98
2017-05-30T04:19:12.892Z,48.52
2017-05-30T04:21:41.965Z,52.42
2017-05-30T04:24:11.045Z,49.10
2017-05-30T04:26:40.128Z,54.18
2017-05-30T04:29:09.272Z,58.70
2017-05-30T04:31:38.341Z,58.20
2017-05-30T04:34:07.396Z,59.54
2017-05-30T04:36:36.494Z,60.34
2017-05-30T04:39:05.595Z,63.02
2017-05-30T04:41:34.666Z,59.58
2017-05-30T04:44:03.833Z,59.24
2017-05-30T04:46:32.920Z,61.42
2017-05-30T04:49:02.017Z,65.66
2017-05-30T04:51:31.065Z,66.96
2017-05-30T04:54:00.111Z,66.16
2017-05-30T04:56:29.189Z,64.14
2017-05-30T04:58:58.257Z,63.62
2017-05-30T05:01:27.375Z,64.26
2017-05-30T05:03:56.813Z,67.00
2017-05-30T05:06:25.926Z,68.36
2017-05-30T05:08:55.137Z,63.38
2017-05-30T05:11:24.220Z,64.38
2017-05-30T05:13:53.283Z,62.46
2017-05-30T05:16:22.357Z,64.08
2017-05-30T05:18:51.427Z,64.30
2017-05-30T05:21:21.223Z,62.72
2017-05-30T05:23:50.275Z,64.16
2017-05-30T05:26:19.349Z,59.28
2017-05-30T05:28:48.401Z,59.30
2017-05-30T05:31:17.475Z,56.50
2017-05-30T05:33:46.766Z,61.10
2017-05-30T05:36:15.846Z,58.60
2017-05-30T05:38:44.919Z,55.98
2017-05-30T05:41:13.984Z,58.98
2017-05-30T05:43:43.173Z,49.74
2017-05-30T05:46:12.225Z,54.50
2017-05-30T05:48:41.316Z,52.20
2017-05-30T05:51:10.386Z,45.38
2017-05-30T05:53:39.457Z,47.32
2017-05-30T05:56:08.581Z,48.90
2017-05-30T05:58:37.983Z,47.18
2017-05-30T06:01:07.049Z,37.08
2017-05-30T06:03:36.113Z,36.18
2017-05-30T06:06:05.216Z,33.50
2017-05-30T06:08:34.297Z,26.92
2017-05-30T06:11:03.395Z,24.72
2017-05-30T06:13:32.500Z,24.48
2017-05-30T06:16:01.566Z,24.56
2017-05-30T06:18:30.634Z,26.92
2017-05-30T06:20:59.701Z,23.46
2017-05-30T06:23:28.775Z,21.90
2017-05-30T06:25:57.824Z,23.24
2017-05-30T06:28:26.910Z,23.06
2017-05-30T06:30:55.976Z,23.74
2017-05-30T06:33:25.060Z,23.02
2017-05-30T06:35:54.284Z,24.10
2017-05-30T06:38:23.407Z,23.76
2017-05-30T06:40:52.489Z,22.74
2017-05-30T06:43:21.556Z,23.78
2017-05-30T06:45:50.644Z,23.32
2017-05-30T06:48:20.343Z,24.28
2017-05-30T06:50:49.722Z,19.26
2017-05-30T06:53:18.794Z,21.68
2017-05-30T06:55:47.864Z,18.02
2017-05-30T06:58:16.948Z,15.88
2017-05-30T07:00:46.013Z,14.12
2017-05-30T07:03:15.095Z,13.34
2017-05-30T07:05:44.160Z,14.30
2017-05-30T07:08:13.223Z,13.16
2017-05-30T07:10:42.319Z,15.46
2017-05-30T07:13:11.390Z,15.34
2017-05-30T07:15:40.445Z,14.48
2017-05-30T07:18:09.647Z,13.22
2017-05-30T07:20:38.764Z,15.14
2017-05-30T07:23:07.842Z,16.78
2017-05-30T07:25:36.920Z,15.84
2017-05-30T07:28:05.346Z,15.42
2017-05-30T07:30:34.424Z,14.78
2017-05-30T07:33:03.481Z,17.84
2017-05-30T07:35:32.560Z,16.22
2017-05-30T07:38:01.617Z,14.70
2017-05-30T07:40:30.693Z,14.92
2017-05-30T07:42:59.796Z,15.20
2017-05-30T07:45:28.850Z,16.30
2017-05-30T07:47:57.953Z,14.48
2017-05-30T07:50:27.022Z,13.70
2017-05-30T07:52:56.087Z,14.18
2017-05-30T07:55:25.212Z,14.22
2017-05-30T07:57:54.289Z,14.16
2017-05-30T08:00:23.500Z,14.94
2017-05-30T08:02:52.570Z,13.32
2017-05-30T08:05:21.645Z,10.92
2017-05-30T08:07:51.173Z,11.70
2017-05-30T08:10:20.239Z,11.80
2017-05-30T08:12:48.609Z,13.78
2017-05-30T08:15:17.687Z,14.20
2017-05-30T08:17:45.970Z,14.48
2017-05-30T08:20:15.032Z,13.92
2017-05-30T08:22:44.090Z,10.72
2017-05-30T08:25:12.436Z,11.22
2017-05-30T08:27:41.486Z,9.74
2017-05-30T08:30:10.557Z,13.80
2017-05-30T08:32:39.629Z,9.96
2017-05-30T08:35:08.677Z,9.06
2017-05-30T08:37:37.809Z,9.14
2017-05-30T08:40:06.861Z,8.72
2017-05-30T08:42:35.949Z,8.92
2017-05-30T08:45:05.004Z,9.12
2017-05-30T08:47:34.088Z,10.00
2017-05-30T08:50:03.172Z,11.82
2017-05-30T08:52:32.228Z,8.78
2017-05-30T08:55:00.525Z,9.52
2017-05-30T08:57:28.805Z,8.80
2017-05-30T08:59:58.110Z,9.98
2017-05-30T09:02:26.420Z,10.24
2017-05-30T09:04:55.468Z,9.76
2017-05-30T09:07:24.549Z,10.90
2017-05-30T09:09:53.588Z,12.48
2017-05-30T09:12:21.870Z,11.06
2017-05-30T09:14:50.931Z,11.40
2017-05-30T09:17:20.012Z,12.04
2017-05-30T09:19:49.517Z,9.74
2017-05-30T09:22:18.560Z,9.00
2017-05-30T09:24:47.871Z,9.74
2017-05-30T09:27:17.013Z,11.44
2017-05-30T09:29:46.064Z,11.32
2017-05-30T09:32:15.152Z,12.76
2017-05-30T09:34:43.471Z,9.36
2017-05-30T09:37:11.775Z,11.06
2017-05-30T09:39:40.875Z,9.24
2017-05-30T09:42:09.161Z,8.84
2017-05-30T09:44:38.215Z,8.42
2017-05-30T09:47:06.528Z,8.54
2017-05-30T09:49:35.566Z,7.32
2017-05-30T09:52:04.639Z,10.20
2017-05-30T09:54:33.718Z,12.30
2017-05-30T09:57:02.795Z,8.00
2017-05-30T09:59:32.052Z,8.26
2017-05-30T10:02:00.338Z,8.68
2017-05-30T10:04:28.647Z,9.70
2017-05-30T10:06:57.690Z,9.92
2017-05-30T10:09:26.764Z,10.00
2017-05-30T10:11:55.830Z,9.82
2017-05-30T10:14:24.324Z,10.66
2017-05-30T10:16:52.621Z,10.62
2017-05-30T10:19:21.683Z,10.68
2017-05-30T10:21:49.969Z,13.44
2017-05-30T10:24:19.033Z,15.32
2017-05-30T10:26:48.105Z,15.12
2017-05-30T10:29:17.153Z,15.58
2017-05-30T10:31:46.220Z,13.64
2017-05-30T10:34:15.314Z,13.10
2017-05-30T10:36:43.618Z,14.96
2017-05-30T10:39:12.677Z,14.98
2017-05-30T10:41:40.981Z,16.22
2017-05-30T10:44:09.403Z,16.16
2017-05-30T10:46:37.946Z,15.84
2017-05-30T10:49:07.029Z,17.86
2017-05-30T10:51:36.077Z,17.06
2017-05-30T10:54:05.145Z,15.90
2017-05-30T10:56:33.454Z,16.04
2017-05-30T10:59:02.551Z,15.06
2017-05-30T11:01:30.896Z,15.08
2017-05-30T11:03:59.204Z,15.34
2017-05-30T11:06:28.283Z,14.98
2017-05-30T11:08:57.377Z,13.76
2017-05-30T11:11:25.684Z,15.36
2017-05-30T11:13:53.985Z,12.38
2017-05-30T11:16:23.053Z,13.40
2017-05-30T11:18:52.140Z,12.66
2017-05-30T11:21:21.233Z,12.68
2017-05-30T11:23:50.294Z,11.36
2017-05-30T11:26:19.373Z,10.16
2017-05-30T11:28:48.658Z,9.56
2017-05-30T11:31:17.719Z,10.04
2017-05-30T11:33:46.026Z,10.28
2017-05-30T11:36:15.133Z,10.20
2017-05-30T11:38:44.192Z,10.42
2017-05-30T11:41:13.380Z,14.84
2017-05-30T11:43:41.664Z,11.14
2017-05-30T11:46:10.768Z,12.26
2017-05-30T11:48:39.841Z,13.02
2017-05-30T11:51:08.893Z,12.42
2017-05-30T11:53:37.956Z,12.32
2017-05-30T11:56:06.279Z,11.14
2017-05-30T11:58:35.321Z,13.02
2017-05-30T12:01:03.609Z,12.70
2017-05-30T12:03:31.936Z,13.84
2017-05-30T12:06:00.252Z,14.38
2017-05-30T12:08:29.312Z,16.06
2017-05-30T12:10:57.628Z,14.96
2017-05-30T12:13:25.924Z,15.64
2017-05-30T12:15:54.225Z,17.62
2017-05-30T12:18:23.303Z,14.88
2017-05-30T12:20:52.792Z,14.56
2017-05-30T12:23:21.856Z,13.50
2017-05-30T12:25:50.422Z,11.90
2017-05-30T12:28:19.846Z,13.42
2017-05-30T12:30:48.975Z,13.94
2017-05-30T12:33:17.302Z,12.60
2017-05-30T12:35:45.617Z,13.96
2017-05-30T12:38:13.924Z,11.48
2017-05-30T12:40:42.984Z,12.28
2017-05-30T12:43:11.306Z,11.70
2017-05-30T12:45:39.609Z,12.68
2017-05-30T12:48:08.688Z,13.94
2017-05-30T12:50:37.805Z,14.64
2017-05-30T12:53:06.987Z,13.96
2017-05-30T12:55:36.061Z,15.28
2017-05-30T12:58:05.152Z,12.02
2017-05-30T13:00:34.246Z,15.32
2017-05-30T13:03:03.372Z,27.64
2017-05-30T13:05:31.673Z,29.02
2017-05-30T13:08:00.727Z,33.96
2017-05-30T13:10:29.816Z,34.56
2017-05-30T13:12:58.108Z,35.82
2017-05-30T13:15:27.180Z,36.46
2017-05-30T13:17:56.362Z,36.50
2017-05-30T13:20:25.439Z,18.42
2017-05-30T13:22:54.525Z,14.94
2017-05-30T13:25:23.585Z,14.88
2017-05-30T13:27:53.596Z,9.72
2017-05-30T13:30:22.656Z,12.10
2017-05-30T13:32:51.473Z,11.30
2017-05-30T13:35:20.548Z,15.42
2017-05-30T13:37:49.616Z,11.74
2017-05-30T13:40:18.684Z,12.12
2017-05-30T13:42:46.979Z,12.96
2017-05-30T13:45:15.296Z,13.36
2017-05-30T13:47:44.383Z,15.22
2017-05-30T13:50:13.509Z,14.50
2017-05-30T13:52:41.788Z,14.58
2017-05-30T13:55:11.056Z,20.48
2017-05-30T13:57:40.139Z,23.82
2017-05-30T14:00:09.382Z,23.16
2017-05-30T14:02:38.452Z,21.68
2017-05-30T14:05:06.903Z,21.84
2017-05-30T14:07:35.232Z,24.48
2017-05-30T14:10:04.344Z,24.74
2017-05-30T14:12:33.396Z,26.76
2017-05-30T14:15:02.484Z,27.62
2017-05-30T14:17:31.576Z,29.84
2017-05-30T14:20:01.324Z,30.08
2017-05-30T14:22:30.381Z,29.84
2017-05-30T14:24:58.695Z,28.04
2017-05-30T14:27:26.976Z,27.72
2017-05-30T14:29:56.074Z,26.54
2017-05-30T14:32:24.385Z,26.92
2017-05-30T14:34:53.452Z,26.40
2017-05-30T14:37:22.557Z,24.82
2017-05-30T14:39:51.627Z,26.06
2017-05-30T14:42:19.927Z,25.30
2017-05-30T14:44:48.226Z,24.66
2017-05-30T14:47:16.578Z,24.38
2017-05-30T14:49:45.642Z,24.72
2017-05-30T14:52:14.736Z,27.20
2017-05-30T14:54:43.792Z,26.40
2017-05-30T14:57:12.867Z,28.24
2017-05-30T14:59:41.970Z,25.72
2017-05-30T15:02:10.470Z,26.36
2017-05-30T15:04:38.938Z,26.90
2017-05-30T15:07:08.070Z,23.36
2017-05-30T15:09:37.135Z,21.94
2017-05-30T15:12:06.210Z,20.46
2017-05-30T15:14:35.332Z,18.42
2017-05-30T15:17:04.657Z,15.74
2017-05-30T15:19:33.705Z,14.10
2017-05-30T15:22:02.035Z,13.14
2017-05-30T15:24:31.126Z,13.32
2017-05-30T15:27:00.982Z,15.08
2017-05-30T15:29:30.057Z,14.52
2017-05-30T15:31:59.245Z,12.52
2017-05-30T15:34:28.312Z,12.76
2017-05-30T15:36:57.417Z,10.42
2017-05-30T15:39:26.485Z,11.34
2017-05-30T15:41:55.536Z,11.16
2017-05-30T15:44:24.604Z,9.82
2017-05-30T15:46:53.680Z,10.10
2017-05-30T15:49:22.737Z,13.02
2017-05-30T15:51:51.845Z,9.86
2017-05-30T15:54:20.153Z,9.38
2017-05-30T15:56:49.506Z,8.14
2017-05-30T15:59:18.568Z,7.88
2017-05-30T16:01:46.897Z,8.40
2017-05-30T16:04:15.940Z,6.18
2017-05-30T16:06:45.016Z,6.96
2017-05-30T16:09:14.100Z,5.68
2017-05-30T16:11:43.184Z,6.12
2017-05-30T16:14:12.289Z,6.70
2017-05-30T16:16:40.565Z,6.80
2017-05-30T16:19:09.664Z,5.70
2017-05-30T16:21:38.761Z,4.54
2017-05-30T16:24:07.055Z,4.46
2017-05-30T16:26:35.326Z,4.90
2017-05-30T16:29:04.420Z,5.16
2017-05-30T16:31:33.476Z,5.12
2017-05-30T16:34:01.819Z,5.76
2017-05-30T16:36:30.133Z,5.58
2017-05-30T16:38:59.185Z,5.42
2017-05-30T16:41:29.096Z,4.88
2017-05-30T16:43:58.158Z,3.96
2017-05-30T16:46:27.217Z,3.82
2017-05-30T16:48:56.295Z,6.56
2017-05-30T16:51:25.352Z,3.66
2017-05-30T16:53:54.453Z,5.74
2017-05-30T16:56:23.524Z,3.62
2017-05-30T16:58:52.614Z,4.62
2017-05-30T17:01:21.686Z,3.80
2017-05-30T17:03:50.205Z,10.32
2017-05-30T17:06:19.265Z,4.82
2017-05-30T17:08:48.324Z,3.66
2017-05-30T17:11:16.644Z,4.08
2017-05-30T17:13:44.935Z,4.06
2017-05-30T17:16:14.002Z,3.48
2017-05-30T17:18:43.072Z,4.52
2017-05-30T17:21:11.388Z,3.32
2017-05-30T17:23:40.923Z,3.76
2017-05-30T17:26:10.004Z,4.78
2017-05-30T17:28:39.066Z,5.12
2017-05-30T17:31:08.322Z,3.70
2017-05-30T17:33:37.395Z,4.86
2017-05-30T17:36:06.446Z,4.14
2017-05-30T17:38:35.531Z,5.28
2017-05-30T17:41:04.685Z,7.56
2017-05-30T17:43:33.924Z,6.58
2017-05-30T17:46:03.051Z,6.40
2017-05-30T17:48:32.126Z,7.64
2017-05-30T17:51:01.247Z,11.70
2017-05-30T17:53:30.328Z,15.22
2017-05-30T17:55:59.434Z,16.04
2017-05-30T17:58:28.525Z,18.30
2017-05-30T18:00:57.605Z,17.96
2017-05-30T18:03:26.689Z,18.50
2017-05-30T18:05:55.817Z,19.58
2017-05-30T18:08:25.001Z,21.02
2017-05-30T18:10:53.307Z,23.54
2017-05-30T18:13:22.440Z,20.82
2017-05-30T18:15:51.851Z,21.34
2017-05-30T18:18:20.944Z,20.52
2017-05-30T18:20:51.462Z,19.84
2017-05-30T18:23:20.540Z,19.82
2017-05-30T18:25:48.863Z,19.74
2017-05-30T18:28:17.163Z,21.38
2017-05-30T18:30:46.225Z,20.02
2017-05-30T18:33:15.316Z,19.34
2017-05-30T18:35:44.401Z,20.82
2017-05-30T18:38:12.703Z,17.24
2017-05-30T18:40:41.867Z,20.26
2017-05-30T18:43:10.956Z,19.32
2017-05-30T18:45:40.059Z,18.94
2017-05-30T18:48:09.131Z,19.14
2017-05-30T18:50:38.578Z,17.52
2017-05-30T18:53:07.664Z,18.16
2017-05-30T18:55:36.780Z,18.82
2017-05-30T18:58:05.861Z,23.80
2017-05-30T19:00:34.931Z,18.06
2017-05-30T19:03:03.249Z,17.38
2017-05-30T19:05:31.585Z,15.72
2017-05-30T19:08:00.658Z,19.88
2017-05-30T19:10:29.814Z,17.62
2017-05-30T19:12:58.962Z,15.44
2017-05-30T19:15:28.082Z,16.28
2017-05-30T19:17:56.381Z,15.36
2017-05-30T19:20:25.488Z,14.06
2017-05-30T19:22:54.556Z,14.72
2017-05-30T19:25:23.640Z,17.10
2017-05-30T19:27:52.977Z,15.48
2017-05-30T19:30:22.097Z,14.02
2017-05-30T19:32:50.511Z,15.06
2017-05-30T19:35:19.593Z,17.66
2017-05-30T19:37:48.017Z,13.36
2017-05-30T19:40:17.094Z,13.96
2017-05-30T19:42:45.380Z,14.60
2017-05-30T19:45:13.697Z,12.90
2017-05-30T19:47:42.007Z,13.76
2017-05-30T19:50:11.065Z,12.40
2017-05-30T19:52:40.773Z,13.06
2017-05-30T19:55:10.785Z,12.08
2017-05-30T19:57:40.223Z,13.72
2017-05-30T20:00:09.321Z,13.24
2017-05-30T20:02:39.180Z,12.06
2017-05-30T20:05:07.529Z,11.62
2017-05-30T20:07:36.594Z,12.08
2017-05-30T20:10:05.694Z,16.44
2017-05-30T20:12:34.770Z,10.90
2017-05-30T20:15:03.876Z,11.18
2017-05-30T20:17:32.973Z,12.78
2017-05-30T20:20:02.073Z,9.62
2017-05-30T20:22:31.136Z,11.40
2017-05-30T20:25:00.065Z,9.32
2017-05-30T20:27:29.152Z,10.46
2017-05-30T20:29:58.210Z,9.10
2017-05-30T20:32:26.534Z,11.70
2017-05-30T20:34:55.608Z,9.72
2017-05-30T20:37:23.901Z,9.90
2017-05-30T20:39:53.000Z,16.26
2017-05-30T20:42:21.321Z,10.66
2017-05-30T20:44:50.377Z,10.04
2017-05-30T20:47:19.441Z,10.94
2017-05-30T20:49:48.494Z,13.26
2017-05-30T20:52:17.570Z,9.84
2017-05-30T20:54:46.670Z,9.64
2017-05-30T20:57:15.722Z,14.18
2017-05-30T20:59:44.782Z,14.02
2017-05-30T21:02:13.875Z,9.10
2017-05-30T21:04:42.959Z,11.46
2017-05-30T21:07:12.061Z,10.80
2017-05-30T21:09:42.103Z,12.84
2017-05-30T21:12:11.184Z,9.62
2017-05-30T21:14:40.348Z,8.16
2017-05-30T21:17:09.425Z,9.36
2017-05-30T21:19:38.516Z,7.74
2017-05-30T21:22:07.613Z,8.38
2017-05-30T21:24:36.689Z,7.98
2017-05-30T21:27:05.857Z,10.24
2017-05-30T21:29:34.937Z,12.00
2017-05-30T21:32:04.018Z,10.66
2017-05-30T21:34:33.199Z,9.30
2017-05-30T21:37:02.266Z,9.60
2017-05-30T21:39:31.321Z,9.74
2017-05-30T21:42:00.384Z,9.68
2017-05-30T21:44:29.446Z,7.20
2017-05-30T21:46:58.493Z,8.12
2017-05-30T21:49:27.540Z,9.10
2017-05-30T21:51:56.603Z,11.92
2017-05-30T21:54:25.657Z,8.18
2017-05-30T21:56:54.741Z,10.00
2017-05-30T21:59:23.831Z,8.68
2017-05-30T22:01:52.938Z,7.54
2017-05-30T22:04:22.137Z,8.18
2017-05-30T22:06:51.989Z,6.76
2017-05-30T22:09:21.085Z,10.54
2017-05-30T22:11:50.509Z,7.28
2017-05-30T22:14:19.593Z,8.80
2017-05-30T22:16:48.636Z,7.80
2017-05-30T22:19:17.687Z,7.30
2017-05-30T22:21:45.998Z,5.68
2017-05-30T22:24:14.325Z,6.88
2017-05-30T22:26:43.385Z,8.54
2017-05-30T22:29:12.431Z,7.04
2017-05-30T22:31:40.713Z,5.38
2017-05-30T22:34:09.818Z,6.86
2017-05-30T22:36:38.885Z,10.24
2017-05-30T22:39:07.929Z,6.60
2017-05-30T22:41:36.224Z,7.80
2017-05-30T22:44:04.525Z,8.38
2017-05-30T22:46:32.825Z,11.00
2017-05-30T22:49:01.916Z,6.84
2017-05-30T22:51:30.197Z,6.60
2017-05-30T22:53:59.267Z,6.24
2017-05-30T22:56:27.543Z,9.28
2017-05-30T22:58:56.614Z,9.60
2017-05-30T23:01:24.907Z,5.70
2017-05-30T23:03:53.179Z,6.04
2017-05-30T23:06:21.485Z,5.20
2017-05-30T23:08:50.563Z,5.18
2017-05-30T23:11:18.851Z,6.96
2017-05-30T23:13:47.129Z,5.78
2017-05-30T23:16:15.444Z,5.16
2017-05-30T23:18:44.556Z,8.18
2017-05-30T23:21:13.665Z,5.72
2017-05-30T23:23:42.750Z,8.22
2017-05-30T23:26:11.832Z,6.72
2017-05-30T23:28:40.894Z,4.76
2017-05-30T23:31:10.144Z,5.42
2017-05-30T23:33:39.190Z,7.66
2017-05-30T23:36:07.539Z,5.62
2017-05-30T23:38:36.605Z,4.92
2017-05-30T23:41:05.664Z,6.66
2017-05-30T23:43:34.169Z,6.92
2017-05-30T23:46:03.226Z,4.76
2017-05-30T23:48:32.297Z,8.86
2017-05-30T23:51:01.364Z,5.88
2017-05-30T23:53:30.413Z,8.06
2017-05-30T23:55:58.713Z,6.08
2017-05-30T23:58:27.751Z,5.82
